createdAt,value
2023-01-28T00:01:12.627Z,0.15
2023-01-28T00:03:40.596Z,0.13
2023-01-28T00:06:10.445Z,0.12
2023-01-28T00:08:38.411Z,0.11
2023-01-28T00:11:08.423Z,0.09
2023-01-28T00:13:37.821Z,0.08
2023-01-28T00:16:08.498Z,0.07
2023-01-28T00:18:37.247Z,0.07
2023-01-28T00:21:08.109Z,0.04
2023-01-28T00:23:38.376Z,0.01
2023-01-28T00:26:08.715Z,-0.01
2023-01-28T00:28:41.486Z,-0.02
2023-01-28T00:31:10.778Z,-0.05
2023-01-28T00:33:38.841Z,-0.06
2023-01-28T00:36:07.886Z,-0.06
2023-01-28T00:38:35.911Z,-0.07
2023-01-28T00:41:11.515Z,-0.08
2023-01-28T00:43:41.896Z,-0.08
2023-01-28T00:46:12.328Z,-0.09
2023-01-28T00:48:41.392Z,-0.14
2023-01-28T00:51:10.915Z,-0.17
2023-01-28T00:53:39.840Z,-0.19
2023-01-28T00:56:09.353Z,-0.21
2023-01-28T00:58:37.412Z,-0.24
2023-01-28T01:01:13.421Z,-0.28
2023-01-28T01:03:43.789Z,-0.34
2023-01-28T01:06:12.844Z,-0.40
2023-01-28T01:08:42.739Z,-0.48
2023-01-28T01:11:12.536Z,-0.53
2023-01-28T01:13:40.722Z,-0.58
2023-01-28T01:16:12.412Z,-0.62
2023-01-28T01:18:41.906Z,-0.67
2023-01-28T01:21:11.804Z,-0.70
2023-01-28T01:23:40.333Z,-0.73
2023-01-28T01:26:08.883Z,-0.76
2023-01-28T01:28:37.612Z,-0.80
2023-01-28T01:31:07.561Z,-0.86
2023-01-28T01:33:36.909Z,-0.91
2023-01-28T01:36:05.069Z,-0.94
2023-01-28T01:38:32.957Z,-0.97
2023-01-28T01:41:02.064Z,-1.01
2023-01-28T01:43:52.173Z,-1.03
2023-01-28T01:46:24.276Z,-1.06
2023-01-28T01:48:54.614Z,-1.05
2023-01-28T01:51:27.525Z,-1.06
2023-01-28T01:53:58.769Z,-1.08
2023-01-28T01:56:31.424Z,-1.08
2023-01-28T01:59:01.223Z,-1.09
2023-01-28T02:01:31.946Z,-1.11
2023-01-28T02:04:06.702Z,-1.11
2023-01-28T02:06:36.425Z,-1.14
2023-01-28T02:09:08.022Z,-1.19
2023-01-28T02:11:36.184Z,-1.22
2023-01-28T02:14:06.657Z,-1.26
2023-01-28T02:16:34.649Z,-1.27
2023-01-28T02:19:04.056Z,-1.29
2023-01-28T02:22:07.273Z,-1.31
2023-01-28T02:24:55.884Z,-1.33
2023-01-28T02:30:30.546Z,-1.36
2023-01-28T02:33:04.795Z,-1.37
2023-01-28T02:35:38.791Z,-1.38
2023-01-28T02:38:10.867Z,-1.38
2023-01-28T02:40:57.318Z,-1.38
2023-01-28T02:47:07.458Z,-1.35
2023-01-28T02:49:40.481Z,-1.32
2023-01-28T02:52:44.881Z,-1.28
2023-01-28T02:55:21.235Z,-1.25
2023-01-28T02:57:59.537Z,-1.21
2023-01-28T03:00:33.360Z,-1.17
2023-01-28T03:03:14.884Z,-1.15
2023-01-28T03:09:24.312Z,-1.09
2023-01-28T03:12:14.002Z,-1.07
2023-01-28T03:15:01.223Z,-1.03
2023-01-28T03:17:54.854Z,-1.02
2023-01-28T03:20:44.433Z,-1.02
2023-01-28T03:23:35.487Z,-1.00
2023-01-28T03:26:23.991Z,-0.98
2023-01-28T03:29:10.279Z,-0.97
2023-01-28T03:31:56.750Z,-0.95
2023-01-28T03:34:42.374Z,-0.94
2023-01-28T03:37:14.768Z,-0.92
2023-01-28T03:39:48.533Z,-0.91
2023-01-28T03:42:18.555Z,-0.90
2023-01-28T03:44:56.067Z,-0.89
2023-01-28T03:47:26.957Z,-0.88
2023-01-28T03:49:56.951Z,-0.86
2023-01-28T03:52:28.062Z,-0.84
2023-01-28T03:55:14.277Z,-0.82
2023-01-28T03:57:44.769Z,-0.80
2023-01-28T04:00:18.194Z,-0.79
2023-01-28T04:02:46.940Z,-0.77
2023-01-28T04:05:19.844Z,-0.75
2023-01-28T04:07:55.838Z,-0.73
2023-01-28T04:10:49.698Z,-0.71
2023-01-28T04:13:26.124Z,-0.70
2023-01-28T04:15:54.006Z,-0.68
2023-01-28T04:18:27.244Z,-0.66
2023-01-28T04:20:57.083Z,-0.66
2023-01-28T04:23:26.451Z,-0.63
2023-01-28T04:25:54.963Z,-0.63
2023-01-28T04:28:24.368Z,-0.62
2023-01-28T04:30:53.513Z,-0.62
2023-01-28T04:33:36.824Z,-0.60
2023-01-28T04:36:15.545Z,-0.60
2023-01-28T04:39:13.612Z,-0.61
2023-01-28T04:41:48.898Z,-0.61
2023-01-28T04:44:23.118Z,-0.62
2023-01-28T04:47:14.322Z,-0.60
2023-01-28T04:49:50.320Z,-0.61
2023-01-28T04:52:28.262Z,-0.61
2023-01-28T04:55:11.948Z,-0.60
2023-01-28T04:57:40.153Z,-0.61
2023-01-28T05:00:10.617Z,-0.59
2023-01-28T05:02:38.505Z,-0.60
2023-01-28T05:05:08.976Z,-0.60
2023-01-28T05:07:55.779Z,-0.62
2023-01-28T05:10:26.128Z,-0.62
2023-01-28T05:12:55.125Z,-0.61
2023-01-28T05:15:23.497Z,-0.62
2023-01-28T05:17:56.050Z,-0.62
2023-01-28T05:20:25.183Z,-0.60
2023-01-28T05:22:56.988Z,-0.60
2023-01-28T05:25:30.460Z,-0.59
2023-01-28T05:27:58.637Z,-0.59
2023-01-28T05:30:27.012Z,-0.58
2023-01-28T05:32:58.746Z,-0.57
2023-01-28T05:35:26.797Z,-0.55
2023-01-28T05:37:54.952Z,-0.57
2023-01-28T05:40:23.481Z,-0.55
2023-01-28T05:42:53.834Z,-0.55
2023-01-28T05:45:34.218Z,-0.54
2023-01-28T05:48:12.429Z,-0.55
2023-01-28T05:51:01.819Z,-0.56
2023-01-28T05:53:36.476Z,-0.56
2023-01-28T05:56:04.739Z,-0.56
2023-01-28T05:58:35.556Z,-0.56
2023-01-28T06:01:05.371Z,-0.56
2023-01-28T06:03:41.531Z,-0.54
2023-01-28T06:06:09.363Z,-0.54
2023-01-28T06:08:39.340Z,-0.55
2023-01-28T06:11:07.305Z,-0.56
2023-01-28T06:13:37.935Z,-0.56
2023-01-28T06:16:26.246Z,-0.57
2023-01-28T06:19:00.607Z,-0.58
2023-01-28T06:21:35.646Z,-0.58
2023-01-28T06:24:03.728Z,-0.60
2023-01-28T06:26:32.130Z,-0.61
2023-01-28T06:29:01.340Z,-0.60
2023-01-28T06:31:29.263Z,-0.61
2023-01-28T06:33:57.236Z,-0.62
2023-01-28T06:36:25.169Z,-0.63
2023-01-28T06:38:52.975Z,-0.62
2023-01-28T06:41:20.860Z,-0.62
2023-01-28T06:43:48.679Z,-0.62
2023-01-28T06:46:17.932Z,-0.63
2023-01-28T06:48:45.761Z,-0.62
2023-01-28T06:51:13.622Z,-0.63
2023-01-28T06:53:41.493Z,-0.63
2023-01-28T06:56:09.678Z,-0.63
2023-01-28T06:58:37.504Z,-0.64
2023-01-28T07:01:05.693Z,-0.64
2023-01-28T07:03:34.835Z,-0.63
2023-01-28T07:06:02.667Z,-0.62
2023-01-28T07:08:30.711Z,-0.64
2023-01-28T07:10:58.537Z,-0.65
2023-01-28T07:13:26.303Z,-0.65
2023-01-28T07:15:54.171Z,-0.65
2023-01-28T07:18:22.126Z,-0.64
2023-01-28T07:20:51.349Z,-0.64
2023-01-28T07:23:19.129Z,-0.63
2023-01-28T07:25:46.917Z,-0.63
2023-01-28T07:28:16.946Z,-0.62
2023-01-28T07:30:44.725Z,-0.63
2023-01-28T07:33:12.613Z,-0.63
2023-01-28T07:35:40.434Z,-0.63
2023-01-28T07:38:09.643Z,-0.64
2023-01-28T07:40:37.605Z,-0.63
2023-01-28T07:43:07.195Z,-0.62
2023-01-28T07:45:39.649Z,-0.61
2023-01-28T07:48:11.138Z,-0.61
2023-01-28T07:50:40.169Z,-0.60
2023-01-28T07:53:11.725Z,-0.60
2023-01-28T07:55:40.020Z,-0.60
2023-01-28T07:58:09.059Z,-0.56
2023-01-28T08:00:45.527Z,-0.54
2023-01-28T08:03:15.970Z,-0.53
2023-01-28T08:05:46.600Z,-0.52
2023-01-28T08:08:16.595Z,-0.51
2023-01-28T08:10:44.986Z,-0.52
2023-01-28T08:13:14.258Z,-0.51
2023-01-28T08:15:42.683Z,-0.50
2023-01-28T08:18:36.014Z,-0.50
2023-01-28T08:21:07.846Z,-0.49
2023-01-28T08:23:37.169Z,-0.48
2023-01-28T08:26:05.082Z,-0.47
2023-01-28T08:28:33.103Z,-0.44
2023-01-28T08:31:02.100Z,-0.42
2023-01-28T08:33:30.162Z,-0.40
2023-01-28T08:35:58.045Z,-0.37
2023-01-28T08:38:25.887Z,-0.36
2023-01-28T08:40:58.238Z,-0.33
2023-01-28T08:43:26.650Z,-0.32
2023-01-28T08:45:54.455Z,-0.32
2023-01-28T08:48:22.396Z,-0.28
2023-01-28T08:50:50.800Z,-0.27
2023-01-28T08:53:20.615Z,-0.22
2023-01-28T08:55:48.837Z,-0.22
2023-01-28T08:58:19.308Z,-0.19
2023-01-28T09:00:48.303Z,-0.16
2023-01-28T09:03:17.460Z,-0.13
2023-01-28T09:05:45.814Z,-0.16
2023-01-28T09:08:16.141Z,-0.16
2023-01-28T09:10:44.519Z,-0.16
2023-01-28T09:13:14.228Z,-0.15
2023-01-28T09:15:44.141Z,-0.14
2023-01-28T09:18:12.361Z,-0.12
2023-01-28T09:20:40.332Z,-0.12
2023-01-28T09:23:09.344Z,-0.12
2023-01-28T09:25:37.297Z,-0.11
2023-01-28T09:28:05.988Z,-0.12
2023-01-28T09:30:37.043Z,-0.12
2023-01-28T09:33:07.858Z,-0.14
2023-01-28T09:35:36.936Z,-0.14
2023-01-28T09:38:05.000Z,-0.14
2023-01-28T09:40:37.543Z,-0.16
2023-01-28T09:43:14.162Z,-0.15
2023-01-28T09:45:45.970Z,-0.14
2023-01-28T09:48:19.370Z,-0.16
2023-01-28T09:50:51.755Z,-0.19
2023-01-28T09:53:22.411Z,-0.20
2023-01-28T09:55:54.480Z,-0.23
2023-01-28T09:58:22.408Z,-0.27
2023-01-28T10:00:59.126Z,-0.29
2023-01-28T10:03:42.580Z,-0.31
2023-01-28T10:06:24.134Z,-0.33
2023-01-28T10:09:07.120Z,-0.34
2023-01-28T10:11:55.749Z,-0.34
2023-01-28T10:14:35.068Z,-0.32
2023-01-28T10:17:32.940Z,-0.32
2023-01-28T10:20:07.150Z,-0.29
2023-01-28T10:22:41.259Z,-0.27
2023-01-28T10:25:18.785Z,-0.22
2023-01-28T10:27:48.980Z,-0.17
2023-01-28T10:30:20.188Z,-0.10
2023-01-28T10:32:53.478Z,-0.04
2023-01-28T10:35:24.102Z,-0.02
2023-01-28T10:38:21.703Z,0.03
2023-01-28T10:40:50.196Z,0.11
2023-01-28T10:43:21.810Z,0.18
2023-01-28T10:45:58.612Z,0.24
2023-01-28T10:48:31.504Z,0.28
2023-01-28T10:51:06.476Z,0.30
2023-01-28T10:53:38.684Z,0.30
2023-01-28T10:56:09.926Z,0.31
2023-01-28T10:58:50.303Z,0.29
2023-01-28T11:01:18.490Z,0.30
2023-01-28T11:03:56.208Z,0.27
2023-01-28T11:06:30.625Z,0.29
2023-01-28T11:09:00.564Z,0.30
2023-01-28T11:11:30.369Z,0.32
2023-01-28T11:13:58.682Z,0.32
2023-01-28T11:16:27.628Z,0.33
2023-01-28T11:19:00.822Z,0.35
2023-01-28T11:21:32.340Z,0.35
2023-01-28T11:24:02.244Z,0.34
2023-01-28T11:26:33.938Z,0.34
2023-01-28T11:29:01.987Z,0.36
2023-01-28T11:31:30.104Z,0.37
2023-01-28T11:34:00.472Z,0.35
2023-01-28T11:36:31.231Z,0.33
2023-01-28T11:39:01.438Z,0.33
2023-01-28T11:41:30.881Z,0.35
2023-01-28T11:44:00.516Z,0.39
2023-01-28T11:47:04.167Z,0.43
2023-01-28T11:49:47.822Z,0.46
2023-01-28T11:52:25.033Z,0.43
2023-01-28T11:55:06.829Z,0.45
2023-01-28T11:57:43.342Z,0.46
2023-01-28T12:00:34.501Z,0.48
2023-01-28T12:03:24.927Z,0.48
2023-01-28T12:05:54.729Z,0.48
2023-01-28T12:08:27.260Z,0.48
2023-01-28T12:11:18.942Z,0.47
2023-01-28T12:14:00.444Z,0.46
2023-01-28T12:16:47.688Z,0.46
2023-01-28T12:19:27.992Z,0.48
2023-01-28T12:22:13.264Z,0.49
2023-01-28T12:24:56.414Z,0.49
2023-01-28T12:27:41.601Z,0.52
2023-01-28T12:30:25.161Z,0.52
2023-01-28T12:33:08.769Z,0.55
2023-01-28T12:35:58.505Z,0.58
2023-01-28T12:38:41.717Z,0.60
2023-01-28T12:41:14.684Z,0.58
2023-01-28T12:46:54.875Z,0.54
2023-01-28T12:49:30.989Z,0.53
2023-01-28T12:52:04.915Z,0.50
2023-01-28T12:54:39.379Z,0.47
2023-01-28T12:57:14.431Z,0.47
2023-01-28T12:59:47.344Z,0.46
2023-01-28T13:02:24.814Z,0.46
2023-01-28T13:05:01.148Z,0.45
2023-01-28T13:07:36.312Z,0.47
2023-01-28T13:10:08.162Z,0.45
2023-01-28T13:12:41.285Z,0.46
2023-01-28T13:15:13.847Z,0.44
2023-01-28T13:17:54.232Z,0.44
2023-01-28T13:20:36.995Z,0.47
2023-01-28T13:23:07.646Z,0.47
2023-01-28T13:25:36.331Z,0.45
2023-01-28T13:28:07.198Z,0.43
2023-01-28T13:30:37.183Z,0.44
2023-01-28T13:33:07.122Z,0.44
2023-01-28T13:35:37.775Z,0.45
2023-01-28T13:38:11.394Z,0.46
2023-01-28T13:40:41.492Z,0.47
2023-01-28T13:46:30.899Z,0.51
2023-01-28T13:49:00.522Z,0.53
2023-01-28T13:51:32.018Z,0.51
2023-01-28T13:54:03.637Z,0.47
2023-01-28T13:56:37.552Z,0.38
2023-01-28T13:59:32.917Z,0.30
2023-01-28T14:02:31.281Z,0.28
2023-01-28T14:05:36.444Z,0.25
2023-01-28T14:08:47.040Z,0.14
2023-01-28T14:11:28.807Z,0.10
2023-01-28T14:14:16.973Z,0.04
2023-01-28T14:16:53.145Z,0.02
2023-01-28T14:19:27.567Z,0.01
2023-01-28T14:21:56.088Z,0.01
2023-01-28T14:24:24.259Z,0.01
2023-01-28T14:27:00.711Z,0.00
2023-01-28T14:29:45.364Z,-0.03
2023-01-28T14:32:16.050Z,-0.03
2023-01-28T14:34:45.078Z,-0.04
2023-01-28T14:37:16.616Z,-0.05
2023-01-28T14:39:47.815Z,-0.05
2023-01-28T14:42:21.719Z,-0.03
2023-01-28T14:45:04.638Z,-0.05
2023-01-28T14:47:54.395Z,-0.07
2023-01-28T14:50:32.326Z,-0.04
2023-01-28T14:53:27.353Z,-0.03
2023-01-28T14:56:00.527Z,-0.02
2023-01-28T14:58:32.702Z,-0.03
2023-01-28T15:01:02.518Z,-0.05
2023-01-28T15:03:31.278Z,-0.08
2023-01-28T15:06:14.736Z,-0.08
2023-01-28T15:08:42.657Z,-0.08
2023-01-28T15:11:16.310Z,-0.08
2023-01-28T15:13:46.817Z,-0.08
2023-01-28T15:16:21.640Z,-0.06
2023-01-28T15:18:50.838Z,-0.07
2023-01-28T15:24:17.261Z,-0.11
2023-01-28T15:26:48.748Z,-0.13
2023-01-28T15:29:27.135Z,-0.13
2023-01-28T15:31:56.440Z,-0.17
2023-01-28T15:34:30.033Z,-0.21
2023-01-28T15:36:58.436Z,-0.24
2023-01-28T15:39:27.559Z,-0.28
2023-01-28T15:41:59.747Z,-0.31
2023-01-28T15:44:31.222Z,-0.32
2023-01-28T15:47:02.229Z,-0.37
2023-01-28T15:49:35.230Z,-0.41
2023-01-28T15:52:03.786Z,-0.47
2023-01-28T15:54:32.523Z,-0.51
2023-01-28T15:57:10.939Z,-0.58
2023-01-28T15:59:38.835Z,-0.60
2023-01-28T16:02:20.309Z,-0.64
2023-01-28T16:04:58.818Z,-0.64
2023-01-28T16:07:33.849Z,-0.67
2023-01-28T16:10:04.570Z,-0.69
2023-01-28T16:12:32.597Z,-0.71
2023-01-28T16:15:02.868Z,-0.74
2023-01-28T16:17:41.880Z,-0.78
2023-01-28T16:20:20.999Z,-0.84
2023-01-28T16:22:49.160Z,-0.88
2023-01-28T16:25:31.103Z,-0.93
2023-01-28T16:27:59.405Z,-0.95
2023-01-28T16:30:27.830Z,-1.02
2023-01-28T16:32:57.130Z,-1.03
2023-01-28T16:35:34.617Z,-1.05
2023-01-28T16:38:05.978Z,-1.06
2023-01-28T16:40:35.064Z,-1.06
2023-01-28T16:43:02.871Z,-1.08
2023-01-28T16:45:30.684Z,-1.13
2023-01-28T16:47:59.878Z,-1.14
2023-01-28T16:50:27.762Z,-1.16
2023-01-28T16:52:58.279Z,-1.20
2023-01-28T16:55:26.380Z,-1.24
2023-01-28T16:57:56.960Z,-1.28
2023-01-28T17:00:27.642Z,-1.34
2023-01-28T17:02:56.134Z,-1.38
2023-01-28T17:05:26.926Z,-1.40
2023-01-28T17:07:59.151Z,-1.42
2023-01-28T17:10:27.277Z,-1.44
2023-01-28T17:12:55.427Z,-1.43
2023-01-28T17:15:23.359Z,-1.47
2023-01-28T17:17:53.032Z,-1.48
2023-01-28T17:20:21.009Z,-1.49
2023-01-28T17:22:51.249Z,-1.49
2023-01-28T17:25:19.149Z,-1.49
2023-01-28T17:27:49.568Z,-1.48
2023-01-28T17:30:19.894Z,-1.48
2023-01-28T17:32:47.842Z,-1.48
2023-01-28T17:35:16.352Z,-1.48
2023-01-28T17:37:44.453Z,-1.48
2023-01-28T17:40:14.789Z,-1.48
2023-01-28T17:42:42.596Z,-1.48
2023-01-28T17:45:10.724Z,-1.48
2023-01-28T17:47:38.611Z,-1.50
2023-01-28T17:50:07.290Z,-1.53
2023-01-28T17:52:35.182Z,-1.55
2023-01-28T17:55:03.055Z,-1.57
2023-01-28T17:57:32.479Z,-1.60
2023-01-28T18:00:00.250Z,-1.63
2023-01-28T18:02:28.500Z,-1.64
2023-01-28T18:04:56.289Z,-1.65
2023-01-28T18:07:24.174Z,-1.66
2023-01-28T18:09:55.186Z,-1.67
2023-01-28T18:12:23.365Z,-1.67
2023-01-28T18:14:52.565Z,-1.69
2023-01-28T18:17:21.352Z,-1.70
2023-01-28T18:19:49.295Z,-1.72
2023-01-28T18:22:17.134Z,-1.73
2023-01-28T18:24:44.907Z,-1.76
2023-01-28T18:27:12.794Z,-1.80
2023-01-28T18:29:40.548Z,-1.84
2023-01-28T18:32:09.863Z,-1.88
2023-01-28T18:34:37.901Z,-1.92
2023-01-28T18:37:07.611Z,-1.98
2023-01-28T18:39:35.644Z,-2.01
2023-01-28T18:42:05.547Z,-2.02
2023-01-28T18:44:33.564Z,-2.05
2023-01-28T18:47:01.357Z,-2.09
2023-01-28T18:49:30.492Z,-2.12
2023-01-28T18:51:59.496Z,-2.16
2023-01-28T18:54:28.976Z,-2.18
2023-01-28T18:56:56.880Z,-2.23
2023-01-28T18:59:24.858Z,-2.24
2023-01-28T19:01:52.810Z,-2.27
2023-01-28T19:04:21.026Z,-2.31
2023-01-28T19:06:50.205Z,-2.35
2023-01-28T19:09:18.788Z,-2.36
2023-01-28T19:11:48.324Z,-2.40
2023-01-28T19:14:16.458Z,-2.43
2023-01-28T19:16:45.487Z,-2.45
2023-01-28T19:19:13.599Z,-2.48
2023-01-28T19:21:41.663Z,-2.51
2023-01-28T19:24:14.006Z,-2.52
2023-01-28T19:26:43.912Z,-2.54
2023-01-28T19:29:15.421Z,-2.57
2023-01-28T19:31:44.722Z,-2.57
2023-01-28T19:34:13.055Z,-2.58
2023-01-28T19:36:42.315Z,-2.59
2023-01-28T19:39:13.267Z,-2.60
2023-01-28T19:41:41.369Z,-2.62
2023-01-28T19:44:09.524Z,-2.62
2023-01-28T19:46:37.491Z,-2.64
2023-01-28T19:49:05.938Z,-2.65
2023-01-28T19:51:34.213Z,-2.66
2023-01-28T19:54:02.199Z,-2.66
2023-01-28T19:56:31.604Z,-2.67
2023-01-28T19:58:59.417Z,-2.68
2023-01-28T20:01:30.457Z,-2.70
2023-01-28T20:04:23.688Z,-2.71
2023-01-28T20:06:51.505Z,-2.73
2023-01-28T20:09:20.849Z,-2.73
2023-01-28T20:11:50.058Z,-2.71
2023-01-28T20:14:18.424Z,-2.71
2023-01-28T20:16:46.251Z,-2.71
2023-01-28T20:19:16.469Z,-2.70
2023-01-28T20:21:45.166Z,-2.68
2023-01-28T20:24:14.067Z,-2.66
2023-01-28T20:26:43.409Z,-2.64
2023-01-28T20:29:14.604Z,-2.63
2023-01-28T20:31:43.254Z,-2.62
2023-01-28T20:34:14.968Z,-2.64
2023-01-28T20:36:43.427Z,-2.63
2023-01-28T20:39:11.585Z,-2.65
2023-01-28T20:41:39.361Z,-2.67
2023-01-28T20:44:07.289Z,-2.69
2023-01-28T20:46:37.384Z,-2.69
2023-01-28T20:49:06.613Z,-2.70
2023-01-28T20:51:36.314Z,-2.70
2023-01-28T20:54:05.167Z,-2.73
2023-01-28T20:56:33.607Z,-2.78
2023-01-28T20:59:03.625Z,-2.78
2023-01-28T21:01:34.430Z,-2.83
2023-01-28T21:04:06.159Z,-2.87
2023-01-28T21:06:34.551Z,-2.90
2023-01-28T21:09:02.553Z,-2.94
2023-01-28T21:11:30.824Z,-2.97
2023-01-28T21:13:59.112Z,-3.00
2023-01-28T21:16:28.330Z,-3.03
2023-01-28T21:18:56.986Z,-3.06
2023-01-28T21:21:28.906Z,-3.10
2023-01-28T21:24:00.692Z,-3.13
2023-01-28T21:26:29.358Z,-3.15
2023-01-28T21:28:57.166Z,-3.17
2023-01-28T21:31:26.513Z,-3.21
2023-01-28T21:33:56.169Z,-3.23
2023-01-28T21:36:27.326Z,-3.26
2023-01-28T21:38:57.536Z,-3.30
2023-01-28T21:41:26.023Z,-3.33
2023-01-28T21:43:57.251Z,-3.35
2023-01-28T21:46:28.056Z,-3.36
2023-01-28T21:48:57.264Z,-3.40
2023-01-28T21:51:37.816Z,-3.42
2023-01-28T21:54:07.088Z,-3.45
2023-01-28T21:56:34.962Z,-3.47
2023-01-28T21:59:20.934Z,-3.49
2023-01-28T22:01:49.186Z,-3.50
2023-01-28T22:04:17.307Z,-3.54
2023-01-28T22:06:46.904Z,-3.54
2023-01-28T22:09:14.985Z,-3.55
2023-01-28T22:11:44.811Z,-3.60
2023-01-28T22:14:13.214Z,-3.62
2023-01-28T22:16:41.275Z,-3.65
2023-01-28T22:19:09.704Z,-3.66
2023-01-28T22:21:41.006Z,-3.67
2023-01-28T22:24:13.116Z,-3.70
2023-01-28T22:26:42.173Z,-3.71
2023-01-28T22:29:10.470Z,-3.72
2023-01-28T22:31:38.820Z,-3.71
2023-01-28T22:34:07.570Z,-3.71
2023-01-28T22:36:37.195Z,-3.73
2023-01-28T22:39:07.058Z,-3.76
2023-01-28T22:41:36.321Z,-3.77
2023-01-28T22:44:04.408Z,-3.79
2023-01-28T22:46:33.942Z,-3.80
2023-01-28T22:49:02.564Z,-3.83
2023-01-28T22:51:32.609Z,-3.85
2023-01-28T22:54:00.922Z,-3.86
2023-01-28T22:56:30.341Z,-3.88
2023-01-28T22:59:01.119Z,-3.90
2023-01-28T23:01:30.093Z,-3.88
2023-01-28T23:06:37.223Z,-3.88
2023-01-28T23:09:05.613Z,-3.86
2023-01-28T23:11:33.568Z,-3.85
2023-01-28T23:14:21.012Z,-3.84
2023-01-28T23:17:06.697Z,-3.80
2023-01-28T23:19:52.615Z,-3.78
2023-01-28T23:22:43.206Z,-3.77
2023-01-28T23:25:11.167Z,-3.74
2023-01-28T23:27:39.183Z,-3.73
2023-01-28T23:30:10.093Z,-3.72
2023-01-28T23:32:39.866Z,-3.71
2023-01-28T23:35:08.711Z,-3.69
2023-01-28T23:37:38.029Z,-3.68
2023-01-28T23:40:07.605Z,-3.67
2023-01-28T23:42:35.379Z,-3.64
2023-01-28T23:45:03.428Z,-3.63
2023-01-28T23:47:31.529Z,-3.61
2023-01-28T23:49:59.329Z,-3.60
2023-01-28T23:52:27.371Z,-3.58
2023-01-28T23:54:56.520Z,-3.58
2023-01-28T23:57:24.447Z,-3.56
2023-01-28T23:59:52.568Z,-3.58
